• Join FlightAware (Why Join?)
  • Login
  • US Flag 
08:06AM EDT


 

Airport Tracker/Info


-or-


 

Live Flight TrackerFlight Track Log ✈ AAL2428 ✈ 10-May-2013 ✈ KLAX - KDFW

Flight Track Log - Related Links

Times and Time Zones

All times are in EDT time to prevent confusion due to time zone crossing. See the AAL2428 flight status page for this flight to view local times or setup timezone preferences in your user account.

Time Position Orientation Groundspeed Altitude Reporting Facility
EDT Latitude Longitude Course Direction KTS MPH feet Rate Location/Type
11:35AM 33.9170 -118.4620 231° Southwest 217 250 1,700  Level FlightAware
11:36AM 33.9030 -118.4810 228° Southwest 238 274 2,300 1,620 Climbing FlightAware
11:36AM 33.8900 -118.5020 233° Southwest 266 306 2,800 2,640 Climbing FlightAware
11:37AM 33.8640 -118.5400 231° Southwest 279 321 4,500 3,180 Climbing FlightAware
11:37AM 33.8500 -118.5530 218° Southwest 283 326 5,200 2,880 Climbing FlightAware
11:37AM 33.8360 -118.5590 200° South 287 330 5,700 2,880 Climbing FlightAware
11:37AM 33.8170 -118.5580 177° South 287 330 6,400 3,060 Climbing FlightAware
11:38AM 33.7770 -118.5470 167° South 295 339 8,000 3,180 Climbing FlightAware
11:38AM 33.7590 -118.5430 170° South 298 343 8,800 3,360 Climbing FlightAware
11:39AM 33.7020 -118.5250 165° South 303 349 11,100 3,240 Climbing FlightAware
11:39AM 33.6870 -118.5090 138° Southeast 298 343 11,800 2,220 Climbing FlightAware
11:39AM 33.6660 -118.4740 126° Southeast 305 351 12,600 900 Climbing FlightAware
11:40AM 33.6180 -118.4240 139° Southeast 317 365 12,900 240 Climbing FlightAware
11:40AM 33.5940 -118.3880 129° Southeast 337 388 12,900  Level FlightAware
11:41AM 33.5880 -118.3630 106° East 334 384 12,900 1,260 Level FlightAware
11:41AM 33.5860 -118.2770 92° East 338 389 14,200 2,160 Climbing FlightAware
11:42AM 33.5870 -118.2030 89° East 355 409 16,000 2,820 Climbing FlightAware
11:43AM 33.5880 -118.1200 89° East 366 421 18,000 2,640 Climbing FlightAware
11:44AM 33.5910 -118.0300 88° East 386 444 19,800 2,220 Climbing FlightAware
11:44AM 33.5930 -117.9410 88° East 404 465 21,200 2,220 Climbing FlightAware
11:45AM 33.5950 -117.8510 88° East 414 476 22,800 2,040 Climbing FlightAware
11:46AM 33.5970 -117.7430 89° East 437 503 24,100 1,920 Climbing FlightAware
11:46AM 33.5990 -117.6450 89° East 445 512 25,600 2,100 Climbing FlightAware
11:47AM 33.6010 -117.5370 89° East 454 522 27,100 1,920 Climbing FlightAware
11:48AM 33.6030 -117.4330 89° East 460 529 28,400 1,320 Climbing FlightAware
11:48AM 33.6050 -117.3150 89° East 469 540 29,000 420 Climbing FlightAware
11:49AM 33.6070 -117.2140 89° East 463 533 29,000  Level FlightAware
11:50AM 33.6090 -117.1100 89° East 459 528 29,000  Level FlightAware
11:51AM 33.6110 -117.0080 89° East 462 532 29,000 480 Level FlightAware
11:51AM 33.6120 -116.8970 89° East 464 534 29,700 1,740 Climbing FlightAware
11:52AM 33.6140 -116.7800 89° East 454 522 31,500 2,220 Climbing FlightAware
11:53AM 33.6150 -116.6790 89° East 451 519 32,900 1,260 Climbing FlightAware
11:53AM 33.6160 -116.5930 89° East 454 522 33,100 660 Climbing FlightAware
11:54AM 33.6180 -116.4690 89° East 461 531 33,900 1,080 Climbing FlightAware
11:55AM 33.6190 -116.3640 89° East 464 534 34,800 1,500 Climbing FlightAware
11:56AM 33.6200 -116.2450 89° East 441 507 36,200 1,380 Climbing FlightAware
11:56AM 33.6210 -116.1400 89° East 439 505 37,000 480 Climbing FlightAware
11:57AM 33.6220 -116.0400 89° East 439 505 37,000  Level FlightAware
11:58AM 33.6240 -115.9570 88° East 439 505 37,000  Level FlightAware
11:58AM 33.6250 -115.8740 89° East 439 505 37,000  Level FlightAware
11:59AM 33.6260 -115.7910 89° East 439 505 37,000  Level FlightAware
12:00PM 33.6100 -115.5950 96° East 469 540 37,000  Level FlightAware
12:01PM 33.6070 -115.4560 91° East 465 535 37,000  Level FlightAware
12:01PM 33.6060 -115.3690 91° East 465 535 37,000  Level FlightAware
12:02PM 33.6050 -115.2810 91° East 465 535 37,000  Level FlightAware
12:03PM 33.6040 -115.1930 91° East 465 535 37,000  Level FlightAware
12:03PM 33.6020 -115.1050 92° East 465 535 37,000  Level FlightAware
12:04PM 33.6010 -114.9950 91° East 465 535 37,000  Level FlightAware
12:05PM 33.5990 -114.9080 92° East 465 535 37,000  Level FlightAware
12:06PM 33.5980 -114.8200 91° East 465 535 37,000  Level FlightAware
12:06PM 33.5970 -114.7320 91° East 465 535 37,000  Level FlightAware
12:07PM 33.5950 -114.6220 91° East 465 535 37,000  Level FlightAware
12:08PM 33.5940 -114.5350 91° East 465 535 37,000  Level FlightAware
12:08PM 33.5930 -114.4470 91° East 465 535 37,000  Level FlightAware
12:09PM 33.5910 -114.3590 92° East 465 535 37,000  Level FlightAware
12:10PM 33.5230 -114.0500 105° East 463 533 37,000  Level FlightAware
12:11PM 33.5130 -113.9380 96° East 462 532 37,000  Level FlightAware
12:11PM 33.5030 -113.8370 97° East 461 531 37,000  Level FlightAware
12:12PM 33.4930 -113.7340 97° East 459 528 37,000  Level FlightAware
12:13PM 33.4810 -113.6190 97° East 458 527 37,000  Level FlightAware
12:13PM 33.4710 -113.5200 97° East 457 526 37,000  Level FlightAware
12:14PM 33.4600 -113.4100 97° East 458 527 37,000  Level FlightAware
12:15PM 33.4510 -113.2220 93° East 455 524 37,000  Level FlightAware
12:16PM 33.4490 -113.1160 91° East 455 524 37,000  Level FlightAware
12:17PM 33.4440 -112.9050 92° East 456 525 37,000  Level FlightAware
12:18PM 33.4420 -112.8050 91° East 457 526 37,000  Level FlightAware
12:19PM 33.4390 -112.6880 92° East 459 528 37,000  Level FlightAware
12:20PM 33.4360 -112.5860 92° East 460 529 37,000  Level FlightAware
12:20PM 33.4330 -112.4850 92° East 462 532 37,000  Level FlightAware
12:21PM 33.4300 -112.3730 92° East 464 534 37,000  Level FlightAware
12:22PM 33.4270 -112.2690 92° East 465 535 37,000  Level FlightAware
12:22PM 33.4240 -112.1680 92° East 466 536 37,000  Level FlightAware
12:23PM 33.4200 -112.0480 92° East 467 537 37,000  Level FlightAware
12:24PM 33.4280 -111.9490 84° East 460 529 37,000  Level FlightAware
12:24PM 33.4620 -111.8420 69° East 458 527 37,000  Level FlightAware
12:25PM 33.4960 -111.7510 66° East 459 528 37,000  Level FlightAware
12:26PM 33.5290 -111.6590 67° East 459 528 37,000  Level FlightAware
12:27PM 33.5670 -111.5530 67° East 459 528 37,000  Level FlightAware
12:27PM 33.6020 -111.4560 67° East 458 527 37,000  Level FlightAware
12:28PM 33.6380 -111.3530 67° East 459 528 37,000  Level FlightAware
12:29PM 33.6720 -111.2580 67° East 460 529 37,000  Level FlightAware
12:29PM 33.7040 -111.1650 68° East 459 528 37,000  Level FlightAware
12:30PM 33.7420 -111.0570 67° East 459 528 37,000  Level FlightAware
12:31PM 33.7740 -110.9650 67° East 460 529 37,000  Level FlightAware
12:31PM 33.8110 -110.8590 67° East 459 528 37,000  Level FlightAware
12:32PM 33.8430 -110.7670 67° East 459 528 37,000  Level FlightAware
12:33PM 33.8770 -110.6710 67° East 459 528 37,000  Level FlightAware
12:34PM 33.9130 -110.5670 67° East 459 528 37,000  Level FlightAware
12:34PM 33.9460 -110.4690 68° East 459 528 37,000  Level FlightAware
12:35PM 33.9780 -110.3770 67° East 458 527 37,000  Level FlightAware
12:36PM 34.0120 -110.2750 68° East 458 527 37,000  Level FlightAware
12:36PM 34.0390 -110.1990 67° East 458 527 37,000  Level FlightAware
12:37PM 34.0830 -110.0690 68° East 459 528 37,000  Level FlightAware
12:38PM 34.1150 -109.9750 68° East 458 527 37,000  Level FlightAware
12:38PM 34.1490 -109.8730 68° East 458 527 37,000  Level FlightAware
12:39PM 34.1760 -109.7970 67° East 458 527 37,000  Level FlightAware
12:40PM 34.2040 -109.7170 67° East 458 527 37,000  Level FlightAware
12:40PM 34.2320 -109.6370 67° East 458 527 37,000  Level FlightAware
12:41PM 34.2670 -109.5360 67° East 458 527 37,000  Level FlightAware
12:42PM 34.2950 -109.4560 67° East 458 527 37,000  Level FlightAware
12:43PM 34.3230 -109.3760 67° East 458 527 37,000  Level FlightAware
12:43PM 34.3520 -109.2950 67° East 458 527 37,000  Level FlightAware
12:44PM 34.3870 -109.1950 67° East 458 527 37,000  Level FlightAware
12:45PM 34.4150 -109.1150 67° East 458 527 37,000  Level FlightAware
12:45PM 34.3900 -108.8600 97° East 461 531 37,000  Level FlightAware
12:46PM 34.3890 -108.7490 91° East 462 532 37,000  Level FlightAware
12:47PM 34.3880 -108.6630 91° East 462 532 37,000  Level FlightAware
12:48PM 34.3870 -108.5360 91° East 463 533 37,000  Level FlightAware
12:48PM 34.3850 -108.4230 91° East 464 534 37,000  Level FlightAware
12:49PM 34.3840 -108.3040 91° East 465 535 37,000  Level FlightAware
12:50PM 34.3830 -108.2040 91° East 465 535 37,000  Level FlightAware
12:50PM 34.3810 -108.0870 91° East 466 536 37,000  Level FlightAware
12:51PM 34.3800 -107.9830 91° East 467 537 37,000  Level FlightAware
12:52PM 34.3780 -107.8780 91° East 467 537 37,000  Level FlightAware
12:52PM 34.3770 -107.7590 91° East 467 537 37,000  Level FlightAware
12:53PM 34.3750 -107.6530 91° East 468 539 37,000  Level FlightAware
12:54PM 34.3730 -107.5490 91° East 468 539 37,000  Level FlightAware
12:55PM 34.3710 -107.4320 91° East 468 539 37,000  Level FlightAware
12:55PM 34.3700 -107.3290 91° East 468 539 37,000  Level FlightAware
12:56PM 34.3670 -107.2080 92° East 469 540 37,000  Level FlightAware
12:57PM 34.3650 -107.1080 91° East 470 541 37,000  Level FlightAware
12:57PM 34.3630 -106.9970 91° East 471 542 37,000  Level FlightAware
12:58PM 34.3610 -106.8920 91° East 471 542 37,000  Level FlightAware
12:59PM 34.3580 -106.7500 91° East 473 544 37,000  Level FlightAware
01:00PM 34.3550 -106.6200 92° East 473 544 37,000  Level FlightAware
01:00PM 34.3530 -106.5040 91° East 473 544 37,000  Level FlightAware
01:01PM 34.3490 -106.3640 92° East 475 547 37,000  Level FlightAware
01:02PM 34.3470 -106.2480 91° East 476 548 37,000  Level FlightAware
01:03PM 34.3440 -106.1420 92° East 477 549 37,000  Level FlightAware
01:03PM 34.3410 -106.0340 92° East 478 550 37,000  Level FlightAware
01:04PM 34.3390 -105.9200 91° East 478 550 37,000  Level FlightAware
01:05PM 34.3340 -105.7880 93° East 479 551 37,000  Level FlightAware
01:06PM 34.3320 -105.6320 91° East 480 552 37,000  Level FlightAware
01:07PM 34.3300 -105.5400 91° East 480 552 37,000  Level FlightAware
01:07PM 34.3290 -105.4490 91° East 480 552 37,000  Level FlightAware
01:08PM 34.3280 -105.3570 91° East 480 552 37,000  Level FlightAware
01:09PM 34.3260 -105.2430 91° East 480 552 37,000  Level FlightAware
01:09PM 34.3250 -105.1520 91° East 480 552 37,000  Level FlightAware
01:10PM 34.3230 -105.0600 91° East 480 552 37,000  Level FlightAware
01:11PM 34.3220 -104.9690 91° East 480 552 37,000  Level FlightAware
01:11PM 34.3210 -104.8770 91° East 480 552 37,000  Level FlightAware
01:12PM 34.3190 -104.7630 91° East 480 552 37,000  Level FlightAware
01:13PM 34.3180 -104.6720 91° East 480 552 37,000  Level FlightAware
01:14PM 34.3160 -104.5800 91° East 480 552 37,000  Level FlightAware
01:14PM 34.3150 -104.4890 91° East 480 552 37,000  Level FlightAware
01:15PM 34.3140 -104.3980 91° East 480 552 37,000 240 Level FlightAware
01:16PM 34.4511 -103.9939 91° East 491 565 37,500 660 Climbing Albuquerque Center
01:17PM 34.4594 -103.8022 87° East 488 562 38,400 480 Climbing Albuquerque Center
01:19PM 34.4725 -103.4736 87° East 487 560 39,000 180 Climbing Albuquerque Center
01:20PM 34.4786 -103.3081 87° East 488 562 39,000  Level Albuquerque Center
01:21PM 34.4844 -103.1453 87° East 485 558 39,000  Level Albuquerque Center
01:22PM 34.4906 -102.9733 87° East 484 557 39,000  Level Albuquerque Center
01:23PM 34.4914 -102.8061 90° East 482 555 39,000  Level Albuquerque Center
01:24PM 34.4769 -102.6514 96° East 481 554 39,000  Level Albuquerque Center
01:25PM 34.4558 -102.4586 98° East 483 556 39,000  Level Albuquerque Center
01:26PM 34.4386 -102.2992 97° East 481 554 39,000  Level Albuquerque Center
01:27PM 34.4222 -102.1389 97° East 482 555 39,000  Level Albuquerque Center
01:28PM 34.4053 -101.9781 97° East 484 557 39,000  Level Albuquerque Center
01:29PM 34.3869 -101.8153 98° East 488 562 39,000  Level Albuquerque Center
01:30PM 34.3689 -101.6514 98° East 492 566 39,000  Level Albuquerque Center
01:32PM 34.3458 -101.4556 98° East 492 566 39,000  Level Fort Worth Center
01:33PM 34.3281 -101.2886 97° East 487 560 39,000  Level Fort Worth Center
01:34PM 34.3081 -101.1219 98° East 487 560 39,000  Level Fort Worth Center
01:35PM 34.2878 -100.9575 98° East 487 560 39,000  Level Fort Worth Center
01:36PM 34.2694 -100.7911 98° East 492 566 39,000  Level Fort Worth Center
01:37PM 34.2489 -100.6244 98° East 492 566 39,000 -1,080 Level Fort Worth Center
01:42PM 34.3850 -99.7630 98° East 487 560 32,500 -1,140 Descending FlightAware
01:43PM 34.4130 -99.6630 71° East 484 557 32,300 -2,340 Descending FlightAware
01:43PM 34.4040 -99.6170 103° East 477 549 30,400 -2,100 Descending FlightAware
01:44PM 34.4100 -99.5120 86° East 477 549 30,400  Level FlightAware
01:44PM 34.4150 -99.4220 86° East 477 549 30,400 -3,120 Level FlightAware
01:45PM 34.4210 -99.3040 86° East 445 512 26,300 -2,940 Descending FlightAware
01:46PM 34.4120 -99.2010 96° East 445 512 26,300 -1,560 Level FlightAware
01:46PM 34.3310 -99.1120 138° Southeast 421 484 24,000 -1,680 Descending FlightAware
01:47PM 34.2860 -99.0420 128° Southeast 426 490 24,000  Level FlightAware
01:48PM 34.2360 -98.9660 128° Southeast 434 499 24,000  Level FlightAware
01:48PM 34.1960 -98.9020 127° Southeast 434 499 24,000  Level FlightAware
01:49PM 34.1290 -98.8000 128° Southeast 431 496 24,000  Level FlightAware
01:50PM 34.0800 -98.7250 128° Southeast 432 497 24,000  Level FlightAware
01:51PM 34.0250 -98.6390 128° Southeast 433 498 24,000  Level FlightAware
01:51PM 33.9760 -98.5640 128° Southeast 433 498 24,000  Level FlightAware
01:52PM 33.9200 -98.4800 129° Southeast 431 496 24,000  Level FlightAware
01:53PM 33.8590 -98.3860 128° Southeast 431 496 24,000  Level FlightAware
01:53PM 33.8100 -98.3110 128° Southeast 423 487 24,000  Level FlightAware
01:54PM 33.7610 -98.2370 129° Southeast 423 487 24,000 -900 Level FlightAware
01:55PM 33.7130 -98.1640 128° Southeast 413 475 22,800 -1,380 Descending FlightAware
01:56PM 33.6420 -98.0570 129° Southeast 405 466 21,700 -660 Descending FlightAware
01:57PM 33.6030 -97.9960 127° Southeast 405 466 21,700 -2,400 Level FlightAware
01:57PM 33.5000 -97.9850 175° South 368 423 18,300 -2,640 Descending FlightAware
01:58PM 33.4300 -97.9440 154° Southeast 368 423 17,600 -420 Descending FlightAware
01:59PM 33.3660 -97.9020 151° Southeast 368 423 17,600  Level FlightAware
02:00PM 33.3160 -97.8690 151° Southeast 368 423 17,600  Level FlightAware
02:00PM 33.2650 -97.8350 151° Southeast 368 423 17,600 -5,460 Level FlightAware
02:01PM 33.3380 -97.6600 63° Northeast 362 417 12,600 -6,120 Descending FlightAware
02:01PM 33.2920 -97.5990 132° Southeast 354 407 11,500 -1,200 Descending FlightAware
02:02PM 33.2420 -97.5410 136° Southeast 337 388 10,900 -420 Descending FlightAware
02:03PM 33.2010 -97.4950 137° Southeast 309 356 11,000 60 Climbing FlightAware
02:03PM 33.1510 -97.4380 136° Southeast 312 359 11,000  Level FlightAware
02:04PM 33.1090 -97.3890 136° Southeast 311 358 11,000  Level FlightAware
02:05PM 33.0714 -97.3454 136° Southeast 314 361 11,000 -120 Level FlightAware ADS-B
02:05PM 33.0275 -97.2949 136° Southeast 314 361 10,900  Descending FlightAware ADS-B
02:06PM 32.9810 -97.2410 136° Southeast 309 356 11,000  Climbing FlightAware
02:07PM 32.9340 -97.1880 137° Southeast 299 344 10,900 -180 Descending FlightAware
02:07PM 32.9040 -97.1520 135° Southeast 254 292 10,800 -660 Descending FlightAware
02:08PM 32.8830 -97.1400 154° Southeast 247 284 10,300 -1,440 Descending FlightAware
02:08PM 32.8490 -97.1410 181° South 248 285 9,600 -1,320 Descending FlightAware
02:09PM 32.8200 -97.1420 182° South 242 278 9,100 -1,440 Descending FlightAware
02:09PM 32.7870 -97.1430 181° South 242 278 8,300 -1,680 Descending FlightAware
02:10PM 32.7590 -97.1440 182° South 242 278 7,600 -1,440 Descending FlightAware
02:10PM 32.7240 -97.1450 181° South 251 289 7,000 -840 Descending FlightAware
02:10PM 32.7050 -97.1470 185° South 250 288 7,000  Level FlightAware
02:11PM 32.6770 -97.1480 182° South 249 287 7,000  Level FlightAware
02:11PM 32.6420 -97.1500 183° South 246 283 7,000  Level FlightAware
02:12PM 32.6140 -97.1520 183° South 252 290 7,000 -180 Level FlightAware
02:12PM 32.5950 -97.1530 183° South 249 287 6,900 -780 Descending FlightAware
02:13PM 32.5540 -97.1520 179° South 243 280 6,300 -960 Descending FlightAware
02:13PM 32.5260 -97.1300 146° Southeast 228 262 5,900 -720 Descending FlightAware
02:13PM 32.5240 -97.1280 140° Southeast 227 261 5,900 180 Level FlightAware
02:14PM 32.5130 -97.0990 114° Southeast 217 250 6,000 -120 Climbing FlightAware
02:14PM 32.5160 -97.0690 83° East 215 247 5,800 -900 Descending FlightAware
02:15PM 32.5330 -97.0410 54° Northeast 210 242 5,200 -1,080 Descending FlightAware
02:15PM 32.5450 -97.0330 29° Northeast 208 239 5,000 -420 Descending FlightAware
02:15PM 32.5740 -97.0310 North 200 230 4,900 -120 Descending FlightAware
02:16PM 32.5980 -97.0320 358° North 200 230 4,900 -480 Level FlightAware
02:16PM 32.6240 -97.0330 358° North 200 230 4,500 -900 Descending FlightAware
02:17PM 32.6460 -97.0330 360° North 201 231 4,100 -1,140 Descending FlightAware
02:17PM 32.6750 -97.0330 360° North 200 230 3,500 -1,080 Descending FlightAware
02:17PM 32.6850 -97.0330 360° North 199 229 3,400 -1,080 Descending FlightAware
02:18PM 32.7110 -97.0320 North 194 223 2,800 -1,140 Descending FlightAware
02:18PM 32.7400 -97.0320 360° North 183 211 2,300 -960 Descending FlightAware
02:19PM 32.7500 -97.0320 360° North 179 206 2,100 -840 Descending FlightAware